sensor_id;sensor_type;location;lat;lon;timestamp;temperature;humidity
12053;DHT22;6087;48.982;12.064;2023-12-20T00:02:17;2.70;89.70
12053;DHT22;6087;48.982;12.064;2023-12-20T00:04:44;2.70;91.00
12053;DHT22;6087;48.982;12.064;2023-12-20T00:07:11;2.70;91.40
12053;DHT22;6087;48.982;12.064;2023-12-20T00:09:40;2.70;92.20
12053;DHT22;6087;48.982;12.064;2023-12-20T00:12:10;2.60;93.60
12053;DHT22;6087;48.982;12.064;2023-12-20T00:14:39;2.70;94.40
12053;DHT22;6087;48.982;12.064;2023-12-20T00:17:06;2.70;94.90
12053;DHT22;6087;48.982;12.064;2023-12-20T00:19:33;2.70;95.20
12053;DHT22;6087;48.982;12.064;2023-12-20T00:22:00;2.80;95.70
12053;DHT22;6087;48.982;12.064;2023-12-20T00:24:27;2.80;96.00
12053;DHT22;6087;48.982;12.064;2023-12-20T00:26:54;2.80;95.80
12053;DHT22;6087;48.982;12.064;2023-12-20T00:29:21;2.90;96.60
12053;DHT22;6087;48.982;12.064;2023-12-20T00:31:49;2.90;97.30
12053;DHT22;6087;48.982;12.064;2023-12-20T00:34:16;2.90;97.10
12053;DHT22;6087;48.982;12.064;2023-12-20T00:36:45;2.90;97.20
12053;DHT22;6087;48.982;12.064;2023-12-20T00:39:12;3.00;96.60
12053;DHT22;6087;48.982;12.064;2023-12-20T00:41:39;3.00;95.80
12053;DHT22;6087;48.982;12.064;2023-12-20T00:44:06;3.00;94.40
12053;DHT22;6087;48.982;12.064;2023-12-20T00:46:33;3.00;93.70
12053;DHT22;6087;48.982;12.064;2023-12-20T00:49:02;3.00;94.00
12053;DHT22;6087;48.982;12.064;2023-12-20T00:51:29;3.00;93.70
12053;DHT22;6087;48.982;12.064;2023-12-20T00:53:56;3.00;92.90
12053;DHT22;6087;48.982;12.064;2023-12-20T00:56:23;3.10;93.00
12053;DHT22;6087;48.982;12.064;2023-12-20T00:58:50;3.10;92.50
12053;DHT22;6087;48.982;12.064;2023-12-20T01:01:19;3.10;93.20
12053;DHT22;6087;48.982;12.064;2023-12-20T01:03:46;3.10;93.50
12053;DHT22;6087;48.982;12.064;2023-12-20T01:06:18;3.20;95.00
12053;DHT22;6087;48.982;12.064;2023-12-20T01:08:45;3.10;96.30
12053;DHT22;6087;48.982;12.064;2023-12-20T01:11:14;3.10;97.90
12053;DHT22;6087;48.982;12.064;2023-12-20T01:13:44;3.10;98.60
12053;DHT22;6087;48.982;12.064;2023-12-20T01:16:12;3.10;99.90
12053;DHT22;6087;48.982;12.064;2023-12-20T01:18:39;3.10;99.90
12053;DHT22;6087;48.982;12.064;2023-12-20T01:21:06;3.10;99.90
12053;DHT22;6087;48.982;12.064;2023-12-20T01:23:34;3.10;99.90
12053;DHT22;6087;48.982;12.064;2023-12-20T01:26:01;3.00;99.90
12053;DHT22;6087;48.982;12.064;2023-12-20T01:28:30;3.00;99.90
12053;DHT22;6087;48.982;12.064;2023-12-20T01:30:57;3.00;99.90
12053;DHT22;6087;48.982;12.064;2023-12-20T01:33:24;3.00;99.90
12053;DHT22;6087;48.982;12.064;2023-12-20T01:35:51;3.00;99.90
12053;DHT22;6087;48.982;12.064;2023-12-20T01:38:18;3.00;99.90
12053;DHT22;6087;48.982;12.064;2023-12-20T01:40:47;3.00;99.90
12053;DHT22;6087;48.982;12.064;2023-12-20T01:43:14;2.90;99.90
12053;DHT22;6087;48.982;12.064;2023-12-20T01:45:41;2.90;99.90
12053;DHT22;6087;48.982;12.064;2023-12-20T01:48:08;2.90;99.90
12053;DHT22;6087;48.982;12.064;2023-12-20T01:50:36;2.90;99.90
12053;DHT22;6087;48.982;12.064;2023-12-20T01:53:05;2.90;99.90
12053;DHT22;6087;48.982;12.064;2023-12-20T01:55:35;2.90;99.90
12053;DHT22;6087;48.982;12.064;2023-12-20T01:58:05;2.90;99.90
12053;DHT22;6087;48.982;12.064;2023-12-20T02:00:32;2.90;99.90
12053;DHT22;6087;48.982;12.064;2023-12-20T02:03:01;2.90;99.90
12053;DHT22;6087;48.982;12.064;2023-12-20T02:05:29;2.90;99.90
12053;DHT22;6087;48.982;12.064;2023-12-20T02:07:56;2.90;99.90
12053;DHT22;6087;48.982;12.064;2023-12-20T02:10:24;2.90;99.90
12053;DHT22;6087;48.982;12.064;2023-12-20T02:12:51;2.90;99.90
12053;DHT22;6087;48.982;12.064;2023-12-20T02:15:20;2.90;99.90
12053;DHT22;6087;48.982;12.064;2023-12-20T02:17:47;2.90;99.90
12053;DHT22;6087;48.982;12.064;2023-12-20T02:20:18;2.90;99.90
12053;DHT22;6087;48.982;12.064;2023-12-20T02:22:46;2.90;99.90
12053;DHT22;6087;48.982;12.064;2023-12-20T02:25:13;2.90;99.90
12053;DHT22;6087;48.982;12.064;2023-12-20T02:27:40;2.90;99.90
12053;DHT22;6087;48.982;12.064;2023-12-20T02:30:08;3.00;99.90
12053;DHT22;6087;48.982;12.064;2023-12-20T02:32:35;2.90;99.90
12053;DHT22;6087;48.982;12.064;2023-12-20T02:35:08;2.90;99.90
12053;DHT22;6087;48.982;12.064;2023-12-20T02:37:35;2.90;99.90
12053;DHT22;6087;48.982;12.064;2023-12-20T02:40:04;2.90;99.90
12053;DHT22;6087;48.982;12.064;2023-12-20T02:42:31;2.90;99.90
12053;DHT22;6087;48.982;12.064;2023-12-20T02:44:58;2.90;99.90
12053;DHT22;6087;48.982;12.064;2023-12-20T02:47:25;3.00;99.90
12053;DHT22;6087;48.982;12.064;2023-12-20T02:49:52;3.00;99.90
12053;DHT22;6087;48.982;12.064;2023-12-20T02:52:19;3.00;99.90
12053;DHT22;6087;48.982;12.064;2023-12-20T02:54:46;3.00;99.90
12053;DHT22;6087;48.982;12.064;2023-12-20T02:57:14;3.00;99.90
12053;DHT22;6087;48.982;12.064;2023-12-20T02:59:41;3.00;99.90
12053;DHT22;6087;48.982;12.064;2023-12-20T03:02:08;3.00;99.90
12053;DHT22;6087;48.982;12.064;2023-12-20T03:04:38;3.10;99.90
12053;DHT22;6087;48.982;12.064;2023-12-20T03:07:05;3.10;99.90
12053;DHT22;6087;48.982;12.064;2023-12-20T03:09:32;3.10;99.90
12053;DHT22;6087;48.982;12.064;2023-12-20T03:11:59;3.10;99.90
12053;DHT22;6087;48.982;12.064;2023-12-20T03:14:27;3.20;99.90
12053;DHT22;6087;48.982;12.064;2023-12-20T03:16:54;3.20;99.90
12053;DHT22;6087;48.982;12.064;2023-12-20T03:19:21;3.20;99.90
12053;DHT22;6087;48.982;12.064;2023-12-20T03:21:48;3.20;99.90
12053;DHT22;6087;48.982;12.064;2023-12-20T03:24:16;3.30;99.90
12053;DHT22;6087;48.982;12.064;2023-12-20T03:26:43;3.30;99.90
12053;DHT22;6087;48.982;12.064;2023-12-20T03:29:10;3.30;99.90
12053;DHT22;6087;48.982;12.064;2023-12-20T03:31:38;3.40;99.90
12053;DHT22;6087;48.982;12.064;2023-12-20T03:34:05;3.40;99.90
12053;DHT22;6087;48.982;12.064;2023-12-20T03:36:32;3.40;99.90
12053;DHT22;6087;48.982;12.064;2023-12-20T03:38:59;3.40;99.90
12053;DHT22;6087;48.982;12.064;2023-12-20T03:41:26;3.40;99.90
12053;DHT22;6087;48.982;12.064;2023-12-20T03:43:53;3.40;99.90
12053;DHT22;6087;48.982;12.064;2023-12-20T03:46:20;3.40;99.90
12053;DHT22;6087;48.982;12.064;2023-12-20T03:48:48;3.40;99.90
12053;DHT22;6087;48.982;12.064;2023-12-20T03:51:15;3.30;99.90
12053;DHT22;6087;48.982;12.064;2023-12-20T03:53:42;3.30;99.90
12053;DHT22;6087;48.982;12.064;2023-12-20T03:56:09;3.30;99.90
12053;DHT22;6087;48.982;12.064;2023-12-20T03:58:36;3.30;99.90
12053;DHT22;6087;48.982;12.064;2023-12-20T04:01:03;3.30;99.90
12053;DHT22;6087;48.982;12.064;2023-12-20T04:03:30;3.30;99.90
12053;DHT22;6087;48.982;12.064;2023-12-20T04:05:58;3.30;99.90
12053;DHT22;6087;48.982;12.064;2023-12-20T04:08:25;3.30;99.90
12053;DHT22;6087;48.982;12.064;2023-12-20T04:10:52;3.30;99.90
12053;DHT22;6087;48.982;12.064;2023-12-20T04:13:19;3.30;99.90
12053;DHT22;6087;48.982;12.064;2023-12-20T04:15:46;3.30;99.90
12053;DHT22;6087;48.982;12.064;2023-12-20T04:18:15;3.30;99.90
12053;DHT22;6087;48.982;12.064;2023-12-20T04:20:42;3.30;99.90
12053;DHT22;6087;48.982;12.064;2023-12-20T04:23:18;3.30;99.90
12053;DHT22;6087;48.982;12.064;2023-12-20T04:25:45;3.30;99.90
12053;DHT22;6087;48.982;12.064;2023-12-20T04:28:21;3.30;99.90
12053;DHT22;6087;48.982;12.064;2023-12-20T04:30:48;3.30;99.90
12053;DHT22;6087;48.982;12.064;2023-12-20T04:33:21;3.20;99.90
12053;DHT22;6087;48.982;12.064;2023-12-20T04:35:49;3.30;99.90
12053;DHT22;6087;48.982;12.064;2023-12-20T04:38:18;3.30;99.90
12053;DHT22;6087;48.982;12.064;2023-12-20T04:40:45;3.20;99.90
12053;DHT22;6087;48.982;12.064;2023-12-20T04:43:12;3.20;99.90
12053;DHT22;6087;48.982;12.064;2023-12-20T04:45:42;3.20;99.90
12053;DHT22;6087;48.982;12.064;2023-12-20T04:48:09;3.20;99.90
12053;DHT22;6087;48.982;12.064;2023-12-20T04:50:37;3.20;99.90
12053;DHT22;6087;48.982;12.064;2023-12-20T04:53:07;3.20;99.90
12053;DHT22;6087;48.982;12.064;2023-12-20T04:55:36;3.20;99.90
12053;DHT22;6087;48.982;12.064;2023-12-20T04:58:03;3.20;99.90
12053;DHT22;6087;48.982;12.064;2023-12-20T05:00:30;3.20;99.90
12053;DHT22;6087;48.982;12.064;2023-12-20T05:02:57;3.20;99.90
12053;DHT22;6087;48.982;12.064;2023-12-20T05:05:24;3.20;99.90
12053;DHT22;6087;48.982;12.064;2023-12-20T05:07:51;3.20;99.90
12053;DHT22;6087;48.982;12.064;2023-12-20T05:10:18;3.20;99.90
12053;DHT22;6087;48.982;12.064;2023-12-20T05:12:46;3.20;99.90
12053;DHT22;6087;48.982;12.064;2023-12-20T05:15:14;3.20;99.90
12053;DHT22;6087;48.982;12.064;2023-12-20T05:17:40;3.20;99.90
12053;DHT22;6087;48.982;12.064;2023-12-20T05:20:08;3.20;99.90
12053;DHT22;6087;48.982;12.064;2023-12-20T05:22:36;3.20;99.90
12053;DHT22;6087;48.982;12.064;2023-12-20T05:25:03;3.20;99.90
12053;DHT22;6087;48.982;12.064;2023-12-20T05:27:31;3.20;99.90
12053;DHT22;6087;48.982;12.064;2023-12-20T05:29:59;3.30;99.90
12053;DHT22;6087;48.982;12.064;2023-12-20T05:32:26;3.30;99.90
12053;DHT22;6087;48.982;12.064;2023-12-20T05:34:53;3.30;99.90
12053;DHT22;6087;48.982;12.064;2023-12-20T05:37:20;3.30;99.90
12053;DHT22;6087;48.982;12.064;2023-12-20T05:39:47;3.30;99.90
12053;DHT22;6087;48.982;12.064;2023-12-20T05:42:21;3.30;99.90
12053;DHT22;6087;48.982;12.064;2023-12-20T05:44:51;3.30;99.90
12053;DHT22;6087;48.982;12.064;2023-12-20T05:47:19;3.30;99.90
12053;DHT22;6087;48.982;12.064;2023-12-20T05:49:46;3.30;99.90
12053;DHT22;6087;48.982;12.064;2023-12-20T05:52:13;3.30;99.90
12053;DHT22;6087;48.982;12.064;2023-12-20T05:54:40;3.30;99.90
12053;DHT22;6087;48.982;12.064;2023-12-20T05:57:07;3.30;99.90
12053;DHT22;6087;48.982;12.064;2023-12-20T05:59:34;3.30;99.90
12053;DHT22;6087;48.982;12.064;2023-12-20T06:02:02;3.30;99.90
12053;DHT22;6087;48.982;12.064;2023-12-20T06:04:31;3.30;99.90
12053;DHT22;6087;48.982;12.064;2023-12-20T06:06:58;3.30;99.90
12053;DHT22;6087;48.982;12.064;2023-12-20T06:09:25;3.30;99.90
12053;DHT22;6087;48.982;12.064;2023-12-20T06:11:53;3.30;99.90
12053;DHT22;6087;48.982;12.064;2023-12-20T06:14:20;3.30;99.90
12053;DHT22;6087;48.982;12.064;2023-12-20T06:16:47;3.30;99.90
12053;DHT22;6087;48.982;12.064;2023-12-20T06:19:14;3.30;99.90
12053;DHT22;6087;48.982;12.064;2023-12-20T06:21:43;3.30;99.90
12053;DHT22;6087;48.982;12.064;2023-12-20T06:24:10;3.30;99.90
12053;DHT22;6087;48.982;12.064;2023-12-20T06:26:37;3.30;99.90
12053;DHT22;6087;48.982;12.064;2023-12-20T06:29:04;3.30;99.90
12053;DHT22;6087;48.982;12.064;2023-12-20T06:31:30;3.30;99.90
12053;DHT22;6087;48.982;12.064;2023-12-20T06:33:58;3.30;99.90
12053;DHT22;6087;48.982;12.064;2023-12-20T06:36:25;3.30;99.90
12053;DHT22;6087;48.982;12.064;2023-12-20T06:38:54;3.30;99.90
12053;DHT22;6087;48.982;12.064;2023-12-20T06:41:21;3.40;99.90
12053;DHT22;6087;48.982;12.064;2023-12-20T06:43:57;3.40;99.90
12053;DHT22;6087;48.982;12.064;2023-12-20T06:46:24;3.40;99.90
12053;DHT22;6087;48.982;12.064;2023-12-20T06:48:54;3.40;99.90
12053;DHT22;6087;48.982;12.064;2023-12-20T06:51:21;3.40;99.90
12053;DHT22;6087;48.982;12.064;2023-12-20T06:53:51;3.40;99.90
12053;DHT22;6087;48.982;12.064;2023-12-20T06:56:19;3.40;99.90
12053;DHT22;6087;48.982;12.064;2023-12-20T06:58:46;3.40;99.90
12053;DHT22;6087;48.982;12.064;2023-12-20T07:01:15;3.40;99.90
12053;DHT22;6087;48.982;12.064;2023-12-20T07:03:43;3.40;99.90
12053;DHT22;6087;48.982;12.064;2023-12-20T07:06:15;3.40;99.90
12053;DHT22;6087;48.982;12.064;2023-12-20T07:08:42;3.40;99.90
12053;DHT22;6087;48.982;12.064;2023-12-20T07:11:09;3.40;99.90
12053;DHT22;6087;48.982;12.064;2023-12-20T07:13:38;3.40;99.90
12053;DHT22;6087;48.982;12.064;2023-12-20T07:16:05;3.40;99.90
12053;DHT22;6087;48.982;12.064;2023-12-20T07:18:32;3.40;99.90
12053;DHT22;6087;48.982;12.064;2023-12-20T07:20:59;3.40;99.90
12053;DHT22;6087;48.982;12.064;2023-12-20T07:23:26;3.40;99.90
12053;DHT22;6087;48.982;12.064;2023-12-20T07:25:53;3.40;99.90
12053;DHT22;6087;48.982;12.064;2023-12-20T07:28:20;3.40;99.90
12053;DHT22;6087;48.982;12.064;2023-12-20T07:30:48;3.40;99.90
12053;DHT22;6087;48.982;12.064;2023-12-20T07:33:15;3.40;99.90
12053;DHT22;6087;48.982;12.064;2023-12-20T07:35:42;3.40;99.90
12053;DHT22;6087;48.982;12.064;2023-12-20T07:38:10;3.40;99.90
12053;DHT22;6087;48.982;12.064;2023-12-20T07:40:38;3.40;99.90
12053;DHT22;6087;48.982;12.064;2023-12-20T07:43:05;3.40;99.90
12053;DHT22;6087;48.982;12.064;2023-12-20T07:45:32;3.40;99.90
12053;DHT22;6087;48.982;12.064;2023-12-20T07:48:00;3.40;99.90
12053;DHT22;6087;48.982;12.064;2023-12-20T07:50:27;3.40;99.90
12053;DHT22;6087;48.982;12.064;2023-12-20T07:52:54;3.50;99.90
12053;DHT22;6087;48.982;12.064;2023-12-20T07:55:21;3.40;99.90
12053;DHT22;6087;48.982;12.064;2023-12-20T07:57:48;3.40;99.90
12053;DHT22;6087;48.982;12.064;2023-12-20T08:00:16;3.40;99.90
12053;DHT22;6087;48.982;12.064;2023-12-20T08:02:45;3.40;99.90
12053;DHT22;6087;48.982;12.064;2023-12-20T08:05:13;3.40;99.90
12053;DHT22;6087;48.982;12.064;2023-12-20T08:07:40;3.40;99.90
12053;DHT22;6087;48.982;12.064;2023-12-20T08:10:08;3.40;99.90
12053;DHT22;6087;48.982;12.064;2023-12-20T08:12:38;3.40;99.90
12053;DHT22;6087;48.982;12.064;2023-12-20T08:15:09;3.40;99.90
12053;DHT22;6087;48.982;12.064;2023-12-20T08:17:36;3.50;99.90
12053;DHT22;6087;48.982;12.064;2023-12-20T08:20:07;3.50;99.90
12053;DHT22;6087;48.982;12.064;2023-12-20T08:22:35;3.50;99.90
12053;DHT22;6087;48.982;12.064;2023-12-20T08:25:03;3.50;99.90
12053;DHT22;6087;48.982;12.064;2023-12-20T08:27:30;3.50;99.90
12053;DHT22;6087;48.982;12.064;2023-12-20T08:30:08;3.60;99.90
12053;DHT22;6087;48.982;12.064;2023-12-20T08:32:35;3.50;99.90
12053;DHT22;6087;48.982;12.064;2023-12-20T08:35:10;3.50;99.90
12053;DHT22;6087;48.982;12.064;2023-12-20T08:37:39;3.50;99.90
12053;DHT22;6087;48.982;12.064;2023-12-20T08:40:07;3.50;99.90
12053;DHT22;6087;48.982;12.064;2023-12-20T08:42:34;3.50;99.90
12053;DHT22;6087;48.982;12.064;2023-12-20T08:45:01;3.50;99.90
12053;DHT22;6087;48.982;12.064;2023-12-20T08:47:30;3.50;99.90
12053;DHT22;6087;48.982;12.064;2023-12-20T08:49:57;3.50;99.90
12053;DHT22;6087;48.982;12.064;2023-12-20T08:52:25;3.50;99.90
12053;DHT22;6087;48.982;12.064;2023-12-20T08:54:54;3.60;99.90
12053;DHT22;6087;48.982;12.064;2023-12-20T08:57:22;3.50;99.90
12053;DHT22;6087;48.982;12.064;2023-12-20T08:59:50;3.60;99.90
12053;DHT22;6087;48.982;12.064;2023-12-20T09:02:17;3.60;99.90
12053;DHT22;6087;48.982;12.064;2023-12-20T09:04:44;3.60;99.90
12053;DHT22;6087;48.982;12.064;2023-12-20T09:07:21;3.60;99.90
12053;DHT22;6087;48.982;12.064;2023-12-20T09:09:49;3.60;99.90
12053;DHT22;6087;48.982;12.064;2023-12-20T09:12:17;3.60;99.90
12053;DHT22;6087;48.982;12.064;2023-12-20T09:14:45;3.60;99.90
12053;DHT22;6087;48.982;12.064;2023-12-20T09:17:12;3.60;99.90
12053;DHT22;6087;48.982;12.064;2023-12-20T09:19:39;3.60;99.90
12053;DHT22;6087;48.982;12.064;2023-12-20T09:22:12;3.60;99.90
12053;DHT22;6087;48.982;12.064;2023-12-20T09:24:39;3.70;99.90
12053;DHT22;6087;48.982;12.064;2023-12-20T09:27:08;3.70;99.90
12053;DHT22;6087;48.982;12.064;2023-12-20T09:29:37;3.70;99.90
12053;DHT22;6087;48.982;12.064;2023-12-20T09:32:04;3.70;99.90
12053;DHT22;6087;48.982;12.064;2023-12-20T09:34:31;3.70;99.90
12053;DHT22;6087;48.982;12.064;2023-12-20T09:36:58;3.70;99.90
12053;DHT22;6087;48.982;12.064;2023-12-20T09:39:25;3.70;99.90
12053;DHT22;6087;48.982;12.064;2023-12-20T09:42:00;3.70;99.90
12053;DHT22;6087;48.982;12.064;2023-12-20T09:44:28;3.80;99.90
12053;DHT22;6087;48.982;12.064;2023-12-20T09:46:57;3.80;99.90
12053;DHT22;6087;48.982;12.064;2023-12-20T09:49:25;3.80;99.90
12053;DHT22;6087;48.982;12.064;2023-12-20T09:51:54;3.90;99.90
12053;DHT22;6087;48.982;12.064;2023-12-20T09:54:22;3.90;99.90
12053;DHT22;6087;48.982;12.064;2023-12-20T09:56:50;4.00;99.90
12053;DHT22;6087;48.982;12.064;2023-12-20T09:59:17;4.00;99.90
12053;DHT22;6087;48.982;12.064;2023-12-20T10:01:44;4.00;99.90
12053;DHT22;6087;48.982;12.064;2023-12-20T10:04:12;4.00;99.90
12053;DHT22;6087;48.982;12.064;2023-12-20T10:06:40;4.00;99.90
12053;DHT22;6087;48.982;12.064;2023-12-20T10:09:07;4.10;99.90
12053;DHT22;6087;48.982;12.064;2023-12-20T10:11:35;4.00;99.90
12053;DHT22;6087;48.982;12.064;2023-12-20T10:14:03;4.10;99.90
12053;DHT22;6087;48.982;12.064;2023-12-20T10:16:31;4.10;99.90
12053;DHT22;6087;48.982;12.064;2023-12-20T10:18:59;4.10;99.90
12053;DHT22;6087;48.982;12.064;2023-12-20T10:21:31;4.10;99.90
12053;DHT22;6087;48.982;12.064;2023-12-20T10:23:58;4.20;99.90
12053;DHT22;6087;48.982;12.064;2023-12-20T10:26:26;4.30;99.90
12053;DHT22;6087;48.982;12.064;2023-12-20T10:28:56;4.40;99.90
12053;DHT22;6087;48.982;12.064;2023-12-20T10:31:30;4.50;99.90
12053;DHT22;6087;48.982;12.064;2023-12-20T10:33:59;4.60;99.90
12053;DHT22;6087;48.982;12.064;2023-12-20T10:36:32;4.70;99.90
12053;DHT22;6087;48.982;12.064;2023-12-20T10:38:59;4.60;99.90
12053;DHT22;6087;48.982;12.064;2023-12-20T10:41:29;4.60;99.90
12053;DHT22;6087;48.982;12.064;2023-12-20T10:44:01;4.60;99.90
12053;DHT22;6087;48.982;12.064;2023-12-20T10:46:31;4.60;99.90
12053;DHT22;6087;48.982;12.064;2023-12-20T10:48:58;4.60;99.90
12053;DHT22;6087;48.982;12.064;2023-12-20T10:51:27;4.50;99.90
12053;DHT22;6087;48.982;12.064;2023-12-20T10:53:56;4.50;99.10
12053;DHT22;6087;48.982;12.064;2023-12-20T10:56:23;4.50;99.60
12053;DHT22;6087;48.982;12.064;2023-12-20T10:58:51;4.50;98.60
12053;DHT22;6087;48.982;12.064;2023-12-20T11:01:19;4.50;96.40
12053;DHT22;6087;48.982;12.064;2023-12-20T11:03:49;4.40;93.40
12053;DHT22;6087;48.982;12.064;2023-12-20T11:06:26;4.50;93.40
12053;DHT22;6087;48.982;12.064;2023-12-20T11:09:01;4.50;94.30
12053;DHT22;6087;48.982;12.064;2023-12-20T11:11:41;4.70;95.80
12053;DHT22;6087;48.982;12.064;2023-12-20T11:14:15;4.90;94.70
12053;DHT22;6087;48.982;12.064;2023-12-20T11:16:44;4.90;91.60
12053;DHT22;6087;48.982;12.064;2023-12-20T11:19:13;4.90;81.60
12053;DHT22;6087;48.982;12.064;2023-12-20T11:21:40;4.80;79.40
12053;DHT22;6087;48.982;12.064;2023-12-20T11:24:09;4.80;80.80
12053;DHT22;6087;48.982;12.064;2023-12-20T11:26:36;4.80;76.70
12053;DHT22;6087;48.982;12.064;2023-12-20T11:29:32;4.80;80.70
12053;DHT22;6087;48.982;12.064;2023-12-20T11:32:03;4.90;81.30
12053;DHT22;6087;48.982;12.064;2023-12-20T11:34:32;5.00;79.30
12053;DHT22;6087;48.982;12.064;2023-12-20T11:37:00;5.10;76.10
12053;DHT22;6087;48.982;12.064;2023-12-20T11:39:33;5.20;62.10
12053;DHT22;6087;48.982;12.064;2023-12-20T11:42:10;5.20;60.80
12053;DHT22;6087;48.982;12.064;2023-12-20T11:44:37;5.20;51.60
12053;DHT22;6087;48.982;12.064;2023-12-20T11:47:05;5.30;50.40
12053;DHT22;6087;48.982;12.064;2023-12-20T11:49:32;5.30;51.80
12053;DHT22;6087;48.982;12.064;2023-12-20T11:51:58;5.40;43.50
12053;DHT22;6087;48.982;12.064;2023-12-20T11:54:25;5.40;45.90
12053;DHT22;6087;48.982;12.064;2023-12-20T11:56:54;5.50;45.60
12053;DHT22;6087;48.982;12.064;2023-12-20T11:59:21;5.50;38.00
12053;DHT22;6087;48.982;12.064;2023-12-20T12:01:50;5.60;36.70
12053;DHT22;6087;48.982;12.064;2023-12-20T12:04:17;5.60;39.60
12053;DHT22;6087;48.982;12.064;2023-12-20T12:06:45;5.50;32.00
12053;DHT22;6087;48.982;12.064;2023-12-20T12:09:13;5.50;37.30
12053;DHT22;6087;48.982;12.064;2023-12-20T12:11:40;5.30;38.10
12053;DHT22;6087;48.982;12.064;2023-12-20T12:14:09;5.30;42.20
12053;DHT22;6087;48.982;12.064;2023-12-20T12:16:36;5.20;40.30
12053;DHT22;6087;48.982;12.064;2023-12-20T12:19:03;5.20;43.00
12053;DHT22;6087;48.982;12.064;2023-12-20T12:21:33;5.10;44.80
12053;DHT22;6087;48.982;12.064;2023-12-20T12:24:07;5.00;44.20
12053;DHT22;6087;48.982;12.064;2023-12-20T12:26:34;4.90;40.00
12053;DHT22;6087;48.982;12.064;2023-12-20T12:29:08;4.90;43.30
12053;DHT22;6087;48.982;12.064;2023-12-20T12:31:36;4.90;46.60
12053;DHT22;6087;48.982;12.064;2023-12-20T12:34:03;4.90;44.30
12053;DHT22;6087;48.982;12.064;2023-12-20T12:36:30;4.90;44.00
12053;DHT22;6087;48.982;12.064;2023-12-20T12:38:57;4.90;41.40
12053;DHT22;6087;48.982;12.064;2023-12-20T12:41:24;4.80;45.40
12053;DHT22;6087;48.982;12.064;2023-12-20T12:43:51;4.80;39.80
12053;DHT22;6087;48.982;12.064;2023-12-20T12:46:19;4.80;43.20
12053;DHT22;6087;48.982;12.064;2023-12-20T12:48:47;4.80;44.20
12053;DHT22;6087;48.982;12.064;2023-12-20T12:51:15;4.70;42.90
12053;DHT22;6087;48.982;12.064;2023-12-20T12:53:42;4.70;44.00
12053;DHT22;6087;48.982;12.064;2023-12-20T12:56:10;4.70;45.90
12053;DHT22;6087;48.982;12.064;2023-12-20T12:58:39;4.70;45.70
12053;DHT22;6087;48.982;12.064;2023-12-20T13:01:06;4.70;45.30
12053;DHT22;6087;48.982;12.064;2023-12-20T13:03:35;4.70;44.60
12053;DHT22;6087;48.982;12.064;2023-12-20T13:06:02;4.70;46.90
12053;DHT22;6087;48.982;12.064;2023-12-20T13:08:31;4.70;50.00
12053;DHT22;6087;48.982;12.064;2023-12-20T13:10:59;4.60;49.30
12053;DHT22;6087;48.982;12.064;2023-12-20T13:13:26;4.60;49.90
12053;DHT22;6087;48.982;12.064;2023-12-20T13:15:54;4.50;46.50
12053;DHT22;6087;48.982;12.064;2023-12-20T13:18:21;4.50;47.60
12053;DHT22;6087;48.982;12.064;2023-12-20T13:20:49;4.50;49.00
12053;DHT22;6087;48.982;12.064;2023-12-20T13:23:17;4.50;51.30
12053;DHT22;6087;48.982;12.064;2023-12-20T13:25:44;4.50;52.10
12053;DHT22;6087;48.982;12.064;2023-12-20T13:28:12;4.50;54.00
12053;DHT22;6087;48.982;12.064;2023-12-20T13:30:39;4.50;55.90
12053;DHT22;6087;48.982;12.064;2023-12-20T13:33:06;4.50;56.60
12053;DHT22;6087;48.982;12.064;2023-12-20T13:35:34;4.50;57.30
12053;DHT22;6087;48.982;12.064;2023-12-20T13:38:03;4.50;57.30
12053;DHT22;6087;48.982;12.064;2023-12-20T13:40:30;4.60;56.80
12053;DHT22;6087;48.982;12.064;2023-12-20T13:42:57;4.70;55.60
12053;DHT22;6087;48.982;12.064;2023-12-20T13:45:24;4.90;53.00
12053;DHT22;6087;48.982;12.064;2023-12-20T13:48:00;4.80;53.10
12053;DHT22;6087;48.982;12.064;2023-12-20T13:50:30;4.80;54.90
12053;DHT22;6087;48.982;12.064;2023-12-20T13:53:01;4.70;54.60
12053;DHT22;6087;48.982;12.064;2023-12-20T13:55:42;4.70;56.90
12053;DHT22;6087;48.982;12.064;2023-12-20T13:58:09;4.70;58.00
12053;DHT22;6087;48.982;12.064;2023-12-20T14:00:36;4.70;54.60
12053;DHT22;6087;48.982;12.064;2023-12-20T14:03:04;4.60;57.20
12053;DHT22;6087;48.982;12.064;2023-12-20T14:05:31;4.50;57.10
12053;DHT22;6087;48.982;12.064;2023-12-20T14:08:02;4.50;61.40
12053;DHT22;6087;48.982;12.064;2023-12-20T14:10:30;4.50;58.50
12053;DHT22;6087;48.982;12.064;2023-12-20T14:13:00;4.40;60.50
12053;DHT22;6087;48.982;12.064;2023-12-20T14:15:27;4.40;62.40
12053;DHT22;6087;48.982;12.064;2023-12-20T14:17:55;4.40;61.50
12053;DHT22;6087;48.982;12.064;2023-12-20T14:20:22;4.40;65.40
12053;DHT22;6087;48.982;12.064;2023-12-20T14:22:49;4.30;66.60
12053;DHT22;6087;48.982;12.064;2023-12-20T14:25:20;4.30;69.20
12053;DHT22;6087;48.982;12.064;2023-12-20T14:27:54;4.20;68.20
12053;DHT22;6087;48.982;12.064;2023-12-20T14:30:21;4.20;72.90
12053;DHT22;6087;48.982;12.064;2023-12-20T14:32:48;4.20;75.10
12053;DHT22;6087;48.982;12.064;2023-12-20T14:35:15;4.20;77.50
12053;DHT22;6087;48.982;12.064;2023-12-20T14:37:43;4.20;73.80
12053;DHT22;6087;48.982;12.064;2023-12-20T14:40:11;4.10;75.60
12053;DHT22;6087;48.982;12.064;2023-12-20T14:42:43;4.10;76.90
12053;DHT22;6087;48.982;12.064;2023-12-20T14:45:14;4.00;78.10
12053;DHT22;6087;48.982;12.064;2023-12-20T14:47:45;4.00;75.40
12053;DHT22;6087;48.982;12.064;2023-12-20T14:50:15;4.00;74.50
12053;DHT22;6087;48.982;12.064;2023-12-20T14:52:44;3.90;72.20
12053;DHT22;6087;48.982;12.064;2023-12-20T14:55:11;3.90;72.30
12053;DHT22;6087;48.982;12.064;2023-12-20T14:57:38;3.90;77.40
12053;DHT22;6087;48.982;12.064;2023-12-20T15:00:08;3.90;82.70
12053;DHT22;6087;48.982;12.064;2023-12-20T15:02:35;3.80;79.40
12053;DHT22;6087;48.982;12.064;2023-12-20T15:05:02;3.70;77.90
12053;DHT22;6087;48.982;12.064;2023-12-20T15:07:31;3.80;80.60
12053;DHT22;6087;48.982;12.064;2023-12-20T15:09:58;3.70;79.40
12053;DHT22;6087;48.982;12.064;2023-12-20T15:12:25;3.70;76.50
12053;DHT22;6087;48.982;12.064;2023-12-20T15:14:53;3.70;76.60
12053;DHT22;6087;48.982;12.064;2023-12-20T15:17:21;3.70;74.60
12053;DHT22;6087;48.982;12.064;2023-12-20T15:19:48;3.70;74.60
12053;DHT22;6087;48.982;12.064;2023-12-20T15:22:15;3.60;73.20
12053;DHT22;6087;48.982;12.064;2023-12-20T15:24:42;3.70;75.60
12053;DHT22;6087;48.982;12.064;2023-12-20T15:27:12;3.60;73.10
12053;DHT22;6087;48.982;12.064;2023-12-20T15:29:39;3.60;71.90
12053;DHT22;6087;48.982;12.064;2023-12-20T15:32:06;3.60;74.50
12053;DHT22;6087;48.982;12.064;2023-12-20T15:34:38;3.60;75.00
12053;DHT22;6087;48.982;12.064;2023-12-20T15:37:05;3.60;70.80
12053;DHT22;6087;48.982;12.064;2023-12-20T15:39:32;3.50;71.20
12053;DHT22;6087;48.982;12.064;2023-12-20T15:42:00;3.50;71.80
12053;DHT22;6087;48.982;12.064;2023-12-20T15:44:27;3.50;72.30
12053;DHT22;6087;48.982;12.064;2023-12-20T15:46:54;3.50;72.80
12053;DHT22;6087;48.982;12.064;2023-12-20T15:49:27;3.50;74.60
12053;DHT22;6087;48.982;12.064;2023-12-20T15:51:56;3.40;73.80